sensor_id;sensor_type;location;lat;lon;timestamp;pressure;altitude;pressure_sealevel;temperature
62930;BMP280;49036;42.782;23.108;2022-10-16T00:01:19;-14151.41;;;3.37
62930;BMP280;49036;42.782;23.108;2022-10-16T00:03:46;-14149.84;;;3.33
62930;BMP280;49036;42.782;23.108;2022-10-16T00:06:12;-14143.47;;;3.14
62930;BMP280;49036;42.782;23.108;2022-10-16T00:08:39;-14141.41;;;3.08
62930;BMP280;49036;42.782;23.108;2022-10-16T00:11:11;-14140.34;;;3.05
62930;BMP280;49036;42.782;23.108;2022-10-16T00:13:39;-14140.53;;;3.05
62930;BMP280;49036;42.782;23.108;2022-10-16T00:16:07;-14135.34;;;2.90
62930;BMP280;49036;42.782;23.108;2022-10-16T00:18:33;-14134.84;;;2.88
62930;BMP280;49036;42.782;23.108;2022-10-16T00:21:04;-14133.97;;;2.86
62930;BMP280;49036;42.782;23.108;2022-10-16T00:23:31;-14133.09;;;2.83
62930;BMP280;49036;42.782;23.108;2022-10-16T00:25:57;-14132.25;;;2.81
62930;BMP280;49036;42.782;23.108;2022-10-16T00:28:23;-14135.88;;;2.92
62930;BMP280;49036;42.782;23.108;2022-10-16T00:30:49;-14135.69;;;2.91
62930;BMP280;49036;42.782;23.108;2022-10-16T00:33:14;-14133.09;;;2.83
62930;BMP280;49036;42.782;23.108;2022-10-16T00:35:40;-14136.41;;;2.93
62930;BMP280;49036;42.782;23.108;2022-10-16T00:38:05;-14141.22;;;3.07
62930;BMP280;49036;42.782;23.108;2022-10-16T00:40:31;-14146.75;;;3.24
62930;BMP280;49036;42.782;23.108;2022-10-16T00:42:57;-14148.13;;;3.28
62930;BMP280;49036;42.782;23.108;2022-10-16T00:45:22;-14149.16;;;3.31
62930;BMP280;49036;42.782;23.108;2022-10-16T00:47:49;-14152.78;;;3.41
62930;BMP280;49036;42.782;23.108;2022-10-16T00:50:30;-14153.31;;;3.43
62930;BMP280;49036;42.782;23.108;2022-10-16T00:52:56;-14149.50;;;3.32
62930;BMP280;49036;42.782;23.108;2022-10-16T00:55:23;-14146.41;;;3.23
62930;BMP280;49036;42.782;23.108;2022-10-16T00:57:49;-14143.31;;;3.13
62930;BMP280;49036;42.782;23.108;2022-10-16T01:00:22;-14141.91;;;3.09
62930;BMP280;49036;42.782;23.108;2022-10-16T01:02:59;-14137.44;;;2.96
62930;BMP280;49036;42.782;23.108;2022-10-16T01:05:38;-14138.28;;;2.99
62930;BMP280;49036;42.782;23.108;2022-10-16T01:08:22;-14139.31;;;3.02
62930;BMP280;49036;42.782;23.108;2022-10-16T01:11:27;-14138.97;;;3.01
62930;BMP280;49036;42.782;23.108;2022-10-16T01:14:00;-14131.22;;;2.78
62930;BMP280;49036;42.782;23.108;2022-10-16T01:16:39;-14125.16;;;2.60
62930;BMP280;49036;42.782;23.108;2022-10-16T01:19:25;-14123.28;;;2.54
62930;BMP280;49036;42.782;23.108;2022-10-16T01:21:53;-14123.09;;;2.54
62930;BMP280;49036;42.782;23.108;2022-10-16T01:24:40;-14125.88;;;2.62
62930;BMP280;49036;42.782;23.108;2022-10-16T01:29:54;-14129.84;;;2.74
62930;BMP280;49036;42.782;23.108;2022-10-16T01:35:05;-14120.50;;;2.46
62930;BMP280;49036;42.782;23.108;2022-10-16T01:37:35;-14121.03;;;2.48
62930;BMP280;49036;42.782;23.108;2022-10-16T01:40:06;-14122.75;;;2.53
62930;BMP280;49036;42.782;23.108;2022-10-16T01:42:39;-14135.00;;;2.89
62930;BMP280;49036;42.782;23.108;2022-10-16T01:45:07;-14140.72;;;3.06
62930;BMP280;49036;42.782;23.108;2022-10-16T01:47:37;-14142.44;;;3.11
62930;BMP280;49036;42.782;23.108;2022-10-16T01:50:04;-14137.78;;;2.97
62930;BMP280;49036;42.782;23.108;2022-10-16T01:52:32;-14133.47;;;2.84
62930;BMP280;49036;42.782;23.108;2022-10-16T01:55:01;-14132.41;;;2.81
62930;BMP280;49036;42.782;23.108;2022-10-16T01:57:29;-14132.41;;;2.81
62930;BMP280;49036;42.782;23.108;2022-10-16T02:00:00;-14133.63;;;2.85
62930;BMP280;49036;42.782;23.108;2022-10-16T02:02:28;-14130.69;;;2.76
62930;BMP280;49036;42.782;23.108;2022-10-16T02:05:48;-14129.16;;;2.72
62930;BMP280;49036;42.782;23.108;2022-10-16T02:07:49;-14132.75;;;2.82
62930;BMP280;49036;42.782;23.108;2022-10-16T02:10:15;-14137.44;;;2.96
62930;BMP280;49036;42.782;23.108;2022-10-16T02:12:45;-14138.47;;;2.99
62930;BMP280;49036;42.782;23.108;2022-10-16T02:15:13;-14138.97;;;3.01
62930;BMP280;49036;42.782;23.108;2022-10-16T02:17:38;-14136.75;;;2.94
62930;BMP280;49036;42.782;23.108;2022-10-16T02:20:04;-14135.19;;;2.89
62930;BMP280;49036;42.782;23.108;2022-10-16T02:22:40;-14132.75;;;2.82
62930;BMP280;49036;42.782;23.108;2022-10-16T02:28:06;-14123.63;;;2.55
62930;BMP280;49036;42.782;23.108;2022-10-16T02:30:36;-14123.63;;;2.55
62930;BMP280;49036;42.782;23.108;2022-10-16T02:33:05;-14128.09;;;2.69
62930;BMP280;49036;42.782;23.108;2022-10-16T02:35:31;-14130.19;;;2.75
62930;BMP280;49036;42.782;23.108;2022-10-16T02:37:58;-14131.56;;;2.79
62930;BMP280;49036;42.782;23.108;2022-10-16T02:40:25;-14133.09;;;2.83
62930;BMP280;49036;42.782;23.108;2022-10-16T02:42:52;-14128.09;;;2.69
62930;BMP280;49036;42.782;23.108;2022-10-16T02:45:18;-14122.56;;;2.52
62930;BMP280;49036;42.782;23.108;2022-10-16T02:47:44;-14124.81;;;2.59
62930;BMP280;49036;42.782;23.108;2022-10-16T02:50:09;-14128.97;;;2.71
62930;BMP280;49036;42.782;23.108;2022-10-16T02:52:35;-14129.66;;;2.73
62930;BMP280;49036;42.782;23.108;2022-10-16T02:55:01;-14126.91;;;2.65
62930;BMP280;49036;42.782;23.108;2022-10-16T02:57:26;-14125.53;;;2.61
62930;BMP280;49036;42.782;23.108;2022-10-16T02:59:52;-14124.66;;;2.58
62930;BMP280;49036;42.782;23.108;2022-10-16T03:02:17;-14119.31;;;2.43
62930;BMP280;49036;42.782;23.108;2022-10-16T03:04:43;-14111.38;;;2.19
62930;BMP280;49036;42.782;23.108;2022-10-16T03:07:09;-14104.81;;;2.00
62930;BMP280;49036;42.782;23.108;2022-10-16T03:09:34;-14099.97;;;1.86
62930;BMP280;49036;42.782;23.108;2022-10-16T03:12:00;-14099.09;;;1.83
62930;BMP280;49036;42.782;23.108;2022-10-16T03:14:25;-14101.00;;;1.89
62930;BMP280;49036;42.782;23.108;2022-10-16T03:16:51;-14105.31;;;2.01
62930;BMP280;49036;42.782;23.108;2022-10-16T03:19:17;-14112.06;;;2.21
62930;BMP280;49036;42.782;23.108;2022-10-16T03:21:43;-14118.44;;;2.40
62930;BMP280;49036;42.782;23.108;2022-10-16T03:24:09;-14122.22;;;2.51
62930;BMP280;49036;42.782;23.108;2022-10-16T03:26:34;-14126.56;;;2.64
62930;BMP280;49036;42.782;23.108;2022-10-16T03:29:00;-14128.44;;;2.70
62930;BMP280;49036;42.782;23.108;2022-10-16T03:31:25;-14130.53;;;2.76
62930;BMP280;49036;42.782;23.108;2022-10-16T03:33:51;-14128.09;;;2.69
62930;BMP280;49036;42.782;23.108;2022-10-16T03:36:16;-14126.72;;;2.65
62930;BMP280;49036;42.782;23.108;2022-10-16T03:38:42;-14127.25;;;2.66
62930;BMP280;49036;42.782;23.108;2022-10-16T03:41:07;-14126.72;;;2.65
62930;BMP280;49036;42.782;23.108;2022-10-16T03:43:33;-14128.28;;;2.69
62930;BMP280;49036;42.782;23.108;2022-10-16T03:45:59;-14132.06;;;2.80
62930;BMP280;49036;42.782;23.108;2022-10-16T03:48:24;-14133.28;;;2.84
62930;BMP280;49036;42.782;23.108;2022-10-16T03:50:50;-14135.00;;;2.89
62930;BMP280;49036;42.782;23.108;2022-10-16T03:53:17;-14134.16;;;2.86
62930;BMP280;49036;42.782;23.108;2022-10-16T03:55:43;-14132.59;;;2.82
62930;BMP280;49036;42.782;23.108;2022-10-16T03:58:08;-14130.19;;;2.75
62930;BMP280;49036;42.782;23.108;2022-10-16T04:00:34;-14129.16;;;2.72
62930;BMP280;49036;42.782;23.108;2022-10-16T04:03:00;-14127.41;;;2.67
62930;BMP280;49036;42.782;23.108;2022-10-16T04:05:26;-14125.69;;;2.61
62930;BMP280;49036;42.782;23.108;2022-10-16T04:07:52;-14126.91;;;2.65
62930;BMP280;49036;42.782;23.108;2022-10-16T04:10:17;-14123.78;;;2.56
62930;BMP280;49036;42.782;23.108;2022-10-16T04:12:44;-14117.75;;;2.38
62930;BMP280;49036;42.782;23.108;2022-10-16T04:15:09;-14111.19;;;2.19
62930;BMP280;49036;42.782;23.108;2022-10-16T04:17:35;-14104.13;;;1.98
62930;BMP280;49036;42.782;23.108;2022-10-16T04:20:00;-14098.06;;;1.80
62930;BMP280;49036;42.782;23.108;2022-10-16T04:22:26;-14093.75;;;1.67
62930;BMP280;49036;42.782;23.108;2022-10-16T04:24:51;-14091.69;;;1.61
62930;BMP280;49036;42.782;23.108;2022-10-16T04:27:17;-14091.00;;;1.59
62930;BMP280;49036;42.782;23.108;2022-10-16T04:29:42;-14093.06;;;1.65
62930;BMP280;49036;42.782;23.108;2022-10-16T04:32:11;-14092.03;;;1.62
62930;BMP280;49036;42.782;23.108;2022-10-16T04:34:39;-14094.28;;;1.69
62930;BMP280;49036;42.782;23.108;2022-10-16T04:37:05;-14096.19;;;1.74
62930;BMP280;49036;42.782;23.108;2022-10-16T04:39:30;-14100.50;;;1.87
62930;BMP280;49036;42.782;23.108;2022-10-16T04:41:56;-14105.84;;;2.03
62930;BMP280;49036;42.782;23.108;2022-10-16T04:44:21;-14104.81;;;2.00
62930;BMP280;49036;42.782;23.108;2022-10-16T04:46:49;-14102.56;;;1.93
62930;BMP280;49036;42.782;23.108;2022-10-16T04:49:15;-14101.72;;;1.91
62930;BMP280;49036;42.782;23.108;2022-10-16T04:51:40;-14104.63;;;1.99
62930;BMP280;49036;42.782;23.108;2022-10-16T04:54:06;-14103.09;;;1.95
62930;BMP280;49036;42.782;23.108;2022-10-16T04:56:31;-14098.94;;;1.83
62930;BMP280;49036;42.782;23.108;2022-10-16T04:58:57;-14097.22;;;1.78
62930;BMP280;49036;42.782;23.108;2022-10-16T05:01:23;-14097.91;;;1.80
62930;BMP280;49036;42.782;23.108;2022-10-16T05:03:48;-14101.88;;;1.91
62930;BMP280;49036;42.782;23.108;2022-10-16T05:06:14;-14106.19;;;2.04
62930;BMP280;49036;42.782;23.108;2022-10-16T05:08:39;-14113.09;;;2.24
62930;BMP280;49036;42.782;23.108;2022-10-16T05:11:05;-14123.63;;;2.55
62930;BMP280;49036;42.782;23.108;2022-10-16T05:13:30;-14132.25;;;2.81
62930;BMP280;49036;42.782;23.108;2022-10-16T05:15:56;-14139.31;;;3.02
62930;BMP280;49036;42.782;23.108;2022-10-16T05:18:22;-14146.41;;;3.23
62930;BMP280;49036;42.782;23.108;2022-10-16T05:20:47;-14154.53;;;3.46
62930;BMP280;49036;42.782;23.108;2022-10-16T05:23:13;-14161.78;;;3.68
62930;BMP280;49036;42.782;23.108;2022-10-16T05:25:38;-14169.19;;;3.90
62930;BMP280;49036;42.782;23.108;2022-10-16T05:28:04;-14174.88;;;4.07
62930;BMP280;49036;42.782;23.108;2022-10-16T05:30:29;-14185.25;;;4.37
62930;BMP280;49036;42.782;23.108;2022-10-16T05:32:55;-14209.94;;;5.10
62930;BMP280;49036;42.782;23.108;2022-10-16T05:35:21;-14229.28;;;5.67
62930;BMP280;49036;42.782;23.108;2022-10-16T05:37:47;-14255.38;;;6.44
62930;BMP280;49036;42.782;23.108;2022-10-16T05:40:14;-14274.91;;;7.01
62930;BMP280;49036;42.782;23.108;2022-10-16T05:42:40;94745.47;;;7.68
62930;BMP280;49036;42.782;23.108;2022-10-16T05:45:06;94749.38;;;7.65
62930;BMP280;49036;42.782;23.108;2022-10-16T05:47:32;94741.09;;;7.65
62930;BMP280;49036;42.782;23.108;2022-10-16T05:49:57;94752.91;;;7.29
62930;BMP280;49036;42.782;23.108;2022-10-16T05:52:23;94754.97;;;8.03
62930;BMP280;49036;42.782;23.108;2022-10-16T05:54:48;94749.03;;;8.44
62930;BMP280;49036;42.782;23.108;2022-10-16T05:57:14;94752.28;;;8.89
62930;BMP280;49036;42.782;23.108;2022-10-16T05:59:40;94759.94;;;9.28
62930;BMP280;49036;42.782;23.108;2022-10-16T06:02:05;94753.28;;;9.64
62930;BMP280;49036;42.782;23.108;2022-10-16T06:04:31;94770.78;;;9.74
62930;BMP280;49036;42.782;23.108;2022-10-16T06:06:59;94770.91;;;9.51
62930;BMP280;49036;42.782;23.108;2022-10-16T06:09:28;94774.25;;;9.50
62930;BMP280;49036;42.782;23.108;2022-10-16T06:11:53;94773.22;;;9.70
62930;BMP280;49036;42.782;23.108;2022-10-16T06:14:19;94781.91;;;9.66
62930;BMP280;49036;42.782;23.108;2022-10-16T06:16:44;94779.25;;;9.84
62930;BMP280;49036;42.782;23.108;2022-10-16T06:19:09;94797.22;;;10.07
62930;BMP280;49036;42.782;23.108;2022-10-16T06:21:35;94788.94;;;10.00
62930;BMP280;49036;42.782;23.108;2022-10-16T06:24:00;94789.75;;;9.85
62930;BMP280;49036;42.782;23.108;2022-10-16T06:26:28;94796.81;;;9.79
62930;BMP280;49036;42.782;23.108;2022-10-16T06:28:55;94800.94;;;9.70
62930;BMP280;49036;42.782;23.108;2022-10-16T06:31:21;94806.59;;;9.87
62930;BMP280;49036;42.782;23.108;2022-10-16T06:33:50;94799.84;;;9.98
62930;BMP280;49036;42.782;23.108;2022-10-16T06:36:17;94796.00;;;9.93
62930;BMP280;49036;42.782;23.108;2022-10-16T06:38:43;94805.53;;;9.75
62930;BMP280;49036;42.782;23.108;2022-10-16T06:41:14;94807.91;;;9.79
62930;BMP280;49036;42.782;23.108;2022-10-16T06:43:40;94807.88;;;9.86
62930;BMP280;49036;42.782;23.108;2022-10-16T06:46:07;94806.16;;;10.23
62930;BMP280;49036;42.782;23.108;2022-10-16T06:48:34;94817.00;;;10.29
62930;BMP280;49036;42.782;23.108;2022-10-16T06:51:09;94812.78;;;10.28
62930;BMP280;49036;42.782;23.108;2022-10-16T06:53:36;94809.81;;;10.51
62930;BMP280;49036;42.782;23.108;2022-10-16T06:56:21;94809.78;;;10.33
62930;BMP280;49036;42.782;23.108;2022-10-16T06:58:47;94824.47;;;10.19
62930;BMP280;49036;42.782;23.108;2022-10-16T07:01:14;94829.03;;;10.06
62930;BMP280;49036;42.782;23.108;2022-10-16T07:03:42;94830.72;;;10.27
62930;BMP280;49036;42.782;23.108;2022-10-16T07:06:10;94831.91;;;10.16
62930;BMP280;49036;42.782;23.108;2022-10-16T07:08:38;94831.16;;;10.16
62930;BMP280;49036;42.782;23.108;2022-10-16T07:11:06;94836.38;;;10.36
62930;BMP280;49036;42.782;23.108;2022-10-16T07:13:36;94830.47;;;10.57
62930;BMP280;49036;42.782;23.108;2022-10-16T07:18:35;94834.47;;;10.64
62930;BMP280;49036;42.782;23.108;2022-10-16T07:21:10;94837.25;;;10.72
62930;BMP280;49036;42.782;23.108;2022-10-16T07:23:36;94837.06;;;10.87
62930;BMP280;49036;42.782;23.108;2022-10-16T07:26:03;94838.72;;;11.24
62930;BMP280;49036;42.782;23.108;2022-10-16T07:28:28;94842.50;;;11.19
62930;BMP280;49036;42.782;23.108;2022-10-16T07:30:55;94839.56;;;11.17
62930;BMP280;49036;42.782;23.108;2022-10-16T07:33:21;94841.75;;;11.19
62930;BMP280;49036;42.782;23.108;2022-10-16T07:35:51;94846.34;;;11.24
62930;BMP280;49036;42.782;23.108;2022-10-16T07:38:17;94840.75;;;11.85
62930;BMP280;49036;42.782;23.108;2022-10-16T07:40:43;94842.09;;;11.84
62930;BMP280;49036;42.782;23.108;2022-10-16T07:43:08;94837.84;;;11.83
62930;BMP280;49036;42.782;23.108;2022-10-16T07:45:34;94842.75;;;12.29
62930;BMP280;49036;42.782;23.108;2022-10-16T07:47:59;94838.88;;;12.51
62930;BMP280;49036;42.782;23.108;2022-10-16T07:50:24;94837.84;;;12.47
62930;BMP280;49036;42.782;23.108;2022-10-16T07:52:50;94845.63;;;12.58
62930;BMP280;49036;42.782;23.108;2022-10-16T07:55:15;94843.06;;;12.89
62930;BMP280;49036;42.782;23.108;2022-10-16T07:57:41;94844.53;;;12.90
62930;BMP280;49036;42.782;23.108;2022-10-16T08:00:07;94842.31;;;13.08
62930;BMP280;49036;42.782;23.108;2022-10-16T08:02:38;94849.69;;;13.22
62930;BMP280;49036;42.782;23.108;2022-10-16T08:05:05;94847.06;;;13.24
62930;BMP280;49036;42.782;23.108;2022-10-16T08:07:31;94842.19;;;13.44
62930;BMP280;49036;42.782;23.108;2022-10-16T08:09:56;94849.63;;;13.80
62930;BMP280;49036;42.782;23.108;2022-10-16T08:12:23;94833.00;;;14.02
62930;BMP280;49036;42.782;23.108;2022-10-16T08:14:48;94843.13;;;14.07
62930;BMP280;49036;42.782;23.108;2022-10-16T08:17:14;94840.28;;;14.47
62930;BMP280;49036;42.782;23.108;2022-10-16T08:19:44;94842.22;;;14.66
62930;BMP280;49036;42.782;23.108;2022-10-16T08:22:10;94842.41;;;14.89
62930;BMP280;49036;42.782;23.108;2022-10-16T08:24:35;94842.66;;;15.15
62930;BMP280;49036;42.782;23.108;2022-10-16T08:27:02;94848.47;;;15.40
62930;BMP280;49036;42.782;23.108;2022-10-16T08:29:28;94845.16;;;15.65
62930;BMP280;49036;42.782;23.108;2022-10-16T08:31:53;94849.56;;;15.80
62930;BMP280;49036;42.782;23.108;2022-10-16T08:34:19;94843.50;;;15.95
62930;BMP280;49036;42.782;23.108;2022-10-16T08:36:44;94847.28;;;16.23
62930;BMP280;49036;42.782;23.108;2022-10-16T08:39:10;94851.44;;;16.22
62930;BMP280;49036;42.782;23.108;2022-10-16T08:47:08;94855.06;;;16.13
62930;BMP280;49036;42.782;23.108;2022-10-16T08:49:41;94852.41;;;15.91
62930;BMP280;49036;42.782;23.108;2022-10-16T08:52:12;94850.56;;;16.19
62930;BMP280;49036;42.782;23.108;2022-10-16T08:54:43;94855.69;;;16.35
62930;BMP280;49036;42.782;23.108;2022-10-16T08:57:17;94857.19;;;16.36
62930;BMP280;49036;42.782;23.108;2022-10-16T08:59:44;94853.88;;;16.39
62930;BMP280;49036;42.782;23.108;2022-10-16T09:06:56;94841.38;;;17.00
62930;BMP280;49036;42.782;23.108;2022-10-16T09:12:33;94842.56;;;16.97
62930;BMP280;49036;42.782;23.108;2022-10-16T09:18:06;94849.34;;;16.81
62930;BMP280;49036;42.782;23.108;2022-10-16T09:21:45;94850.06;;;16.81
62930;BMP280;49036;42.782;23.108;2022-10-16T09:26:43;94846.38;;;16.79
62930;BMP280;49036;42.782;23.108;2022-10-16T09:29:14;94846.16;;;16.75
62930;BMP280;49036;42.782;23.108;2022-10-16T09:31:41;94849.78;;;16.89
62930;BMP280;49036;42.782;23.108;2022-10-16T09:34:21;94843.59;;;17.16
62930;BMP280;49036;42.782;23.108;2022-10-16T09:36:51;94844.38;;;17.30
62930;BMP280;49036;42.782;23.108;2022-10-16T09:39:17;94841.38;;;17.26
62930;BMP280;49036;42.782;23.108;2022-10-16T09:41:44;94839.88;;;17.25
62930;BMP280;49036;42.782;23.108;2022-10-16T09:47:14;94838.38;;;17.10
62930;BMP280;49036;42.782;23.108;2022-10-16T09:52:20;94842.00;;;17.24
62930;BMP280;49036;42.782;23.108;2022-10-16T09:54:56;94836.69;;;17.30
62930;BMP280;49036;42.782;23.108;2022-10-16T09:57:22;94829.19;;;17.47
62930;BMP280;49036;42.782;23.108;2022-10-16T09:59:58;94839.56;;;17.44
62930;BMP280;49036;42.782;23.108;2022-10-16T10:02:33;94832.00;;;17.47
62930;BMP280;49036;42.782;23.108;2022-10-16T10:05:00;94829.69;;;17.43
62930;BMP280;49036;42.782;23.108;2022-10-16T10:07:29;94830.03;;;17.24
62930;BMP280;49036;42.782;23.108;2022-10-16T10:09:59;94822.78;;;17.07
62930;BMP280;49036;42.782;23.108;2022-10-16T10:12:27;94820.59;;;17.06
62930;BMP280;49036;42.782;23.108;2022-10-16T10:14:55;94822.81;;;17.32
62930;BMP280;49036;42.782;23.108;2022-10-16T10:17:23;94813.88;;;17.36
62930;BMP280;49036;42.782;23.108;2022-10-16T10:20:00;94813.25;;;17.38
62930;BMP280;49036;42.782;23.108;2022-10-16T10:25:26;94813.41;;;17.53
62930;BMP280;49036;42.782;23.108;2022-10-16T10:28:20;94814.25;;;17.56
62930;BMP280;49036;42.782;23.108;2022-10-16T10:35:19;94799.28;;;17.51
62930;BMP280;49036;42.782;23.108;2022-10-16T10:37:51;94796.47;;;17.51
62930;BMP280;49036;42.782;23.108;2022-10-16T10:40:41;94794.91;;;17.48
62930;BMP280;49036;42.782;23.108;2022-10-16T10:45:47;94791.56;;;17.91
62930;BMP280;49036;42.782;23.108;2022-10-16T10:51:20;94775.63;;;18.50
62930;BMP280;49036;42.782;23.108;2022-10-16T10:56:51;94772.00;;;19.20
62930;BMP280;49036;42.782;23.108;2022-10-16T11:02:36;94770.50;;;19.80
62930;BMP280;49036;42.782;23.108;2022-10-16T11:07:55;94774.00;;;20.12
62930;BMP280;49036;42.782;23.108;2022-10-16T11:10:27;94770.47;;;20.11
62930;BMP280;49036;42.782;23.108;2022-10-16T11:12:58;94764.16;;;20.29
62930;BMP280;49036;42.782;23.108;2022-10-16T11:15:37;94766.53;;;20.52
62930;BMP280;49036;42.782;23.108;2022-10-16T11:18:17;94771.03;;;20.75
62930;BMP280;49036;42.782;23.108;2022-10-16T11:26:14;94771.28;;;20.47
62930;BMP280;49036;42.782;23.108;2022-10-16T11:28:51;94753.78;;;20.84
62930;BMP280;49036;42.782;23.108;2022-10-16T11:34:06;94762.69;;;21.89
62930;BMP280;49036;42.782;23.108;2022-10-16T11:36:49;94761.50;;;21.96
62930;BMP280;49036;42.782;23.108;2022-10-16T11:39:27;94753.97;;;21.63
62930;BMP280;49036;42.782;23.108;2022-10-16T11:44:57;94754.91;;;22.10
62930;BMP280;49036;42.782;23.108;2022-10-16T11:47:32;94756.41;;;22.76
62930;BMP280;49036;42.782;23.108;2022-10-16T11:50:53;94759.16;;;22.30
62930;BMP280;49036;42.782;23.108;2022-10-16T11:53:35;94755.56;;;22.50
62930;BMP280;49036;42.782;23.108;2022-10-16T11:56:04;94761.28;;;22.10
62930;BMP280;49036;42.782;23.108;2022-10-16T12:08:51;94743.69;;;22.55
62930;BMP280;49036;42.782;23.108;2022-10-16T12:18:43;94753.97;;;22.66
62930;BMP280;49036;42.782;23.108;2022-10-16T12:21:11;94740.88;;;22.33
62930;BMP280;49036;42.782;23.108;2022-10-16T12:26:12;94746.00;;;21.03
62930;BMP280;49036;42.782;23.108;2022-10-16T12:28:37;94744.69;;;21.23
62930;BMP280;49036;42.782;23.108;2022-10-16T12:31:08;94750.19;;;20.84
62930;BMP280;49036;42.782;23.108;2022-10-16T12:33:43;94744.88;;;20.23
62930;BMP280;49036;42.782;23.108;2022-10-16T12:36:32;94750.38;;;20.03
62930;BMP280;49036;42.782;23.108;2022-10-16T12:38:58;94756.25;;;19.60
62930;BMP280;49036;42.782;23.108;2022-10-16T12:42:35;94744.78;;;18.95
62930;BMP280;49036;42.782;23.108;2022-10-16T12:45:01;94739.44;;;18.72
62930;BMP280;49036;42.782;23.108;2022-10-16T12:47:48;94736.50;;;18.40
62930;BMP280;49036;42.782;23.108;2022-10-16T12:50:31;94742.25;;;18.01
62930;BMP280;49036;42.782;23.108;2022-10-16T12:52:58;94742.69;;;17.96
62930;BMP280;49036;42.782;23.108;2022-10-16T12:55:24;94746.31;;;17.85
62930;BMP280;49036;42.782;23.108;2022-10-16T13:01:07;94741.84;;;17.80
62930;BMP280;49036;42.782;23.108;2022-10-16T13:05:18;94747.75;;;17.72
62930;BMP280;49036;42.782;23.108;2022-10-16T13:08:02;94744.28;;;17.60
62930;BMP280;49036;42.782;23.108;2022-10-16T13:13:24;94754.06;;;17.59
62930;BMP280;49036;42.782;23.108;2022-10-16T13:19:14;94757.75;;;17.36
62930;BMP280;49036;42.782;23.108;2022-10-16T13:27:43;94768.75;;;17.32
62930;BMP280;49036;42.782;23.108;2022-10-16T13:29:42;94765.44;;;17.35
62930;BMP280;49036;42.782;23.108;2022-10-16T13:32:10;94760.94;;;17.30
62930;BMP280;49036;42.782;23.108;2022-10-16T13:34:44;94771.63;;;17.20
62930;BMP280;49036;42.782;23.108;2022-10-16T13:37:21;94764.66;;;17.21
62930;BMP280;49036;42.782;23.108;2022-10-16T13:39:48;94764.28;;;17.27
62930;BMP280;49036;42.782;23.108;2022-10-16T13:42:24;94767.75;;;17.14
62930;BMP280;49036;42.782;23.108;2022-10-16T13:44:52;94762.97;;;17.16
62930;BMP280;49036;42.782;23.108;2022-10-16T13:47:28;94766.06;;;17.09
62930;BMP280;49036;42.782;23.108;2022-10-16T13:50:05;94756.88;;;16.94
62930;BMP280;49036;42.782;23.108;2022-10-16T13:52:32;94760.66;;;16.87
62930;BMP280;49036;42.782;23.108;2022-10-16T13:54:57;94763.34;;;16.85
62930;BMP280;49036;42.782;23.108;2022-10-16T13:57:24;94770.03;;;16.92
62930;BMP280;49036;42.782;23.108;2022-10-16T13:59:50;94771.28;;;16.89
62930;BMP280;49036;42.782;23.108;2022-10-16T14:04:04;94772.06;;;17.67
62930;BMP280;49036;42.782;23.108;2022-10-16T14:06:30;94762.72;;;18.88
62930;BMP280;49036;42.782;23.108;2022-10-16T14:09:25;94771.31;;;19.67
62930;BMP280;49036;42.782;23.108;2022-10-16T14:12:00;94778.31;;;20.46
62930;BMP280;49036;42.782;23.108;2022-10-16T14:14:41;94775.50;;;20.46
62930;BMP280;49036;42.782;23.108;2022-10-16T14:17:15;94772.31;;;20.89
62930;BMP280;49036;42.782;23.108;2022-10-16T14:19:46;94769.47;;;21.07
62930;BMP280;49036;42.782;23.108;2022-10-16T14:22:30;94765.44;;;21.87
62930;BMP280;49036;42.782;23.108;2022-10-16T14:24:57;94769.41;;;23.07
62930;BMP280;49036;42.782;23.108;2022-10-16T14:27:32;94773.56;;;23.51
62930;BMP280;49036;42.782;23.108;2022-10-16T14:30:24;94777.34;;;23.58
62930;BMP280;49036;42.782;23.108;2022-10-16T14:33:40;94782.47;;;23.89
62930;BMP280;49036;42.782;23.108;2022-10-16T14:38:37;94787.75;;;24.27
62930;BMP280;49036;42.782;23.108;2022-10-16T14:41:03;94784.91;;;24.55
62930;BMP280;49036;42.782;23.108;2022-10-16T14:43:33;94780.13;;;24.08
62930;BMP280;49036;42.782;23.108;2022-10-16T14:45:59;94763.00;;;23.28
62930;BMP280;49036;42.782;23.108;2022-10-16T14:48:26;94741.28;;;22.89
62930;BMP280;49036;42.782;23.108;2022-10-16T14:50:52;94655.69;;;22.45
62930;BMP280;49036;42.782;23.108;2022-10-16T14:53:17;91980.03;;;21.45
62930;BMP280;49036;42.782;23.108;2022-10-16T14:55:43;69593.16;;;20.92
62930;BMP280;49036;42.782;23.108;2022-10-16T14:58:17;-2772.28;;;21.26
62930;BMP280;49036;42.782;23.108;2022-10-16T15:00:43;3230.06;;;21.46
62930;BMP280;49036;42.782;23.108;2022-10-16T15:03:09;-14774.94;;;21.67
62930;BMP280;49036;42.782;23.108;2022-10-16T15:05:35;-12344.59;;;21.84
62930;BMP280;49036;42.782;23.108;2022-10-16T15:08:00;-3564.78;;;21.54
62930;BMP280;49036;42.782;23.108;2022-10-16T15:10:27;-14747.56;;;20.87
62930;BMP280;49036;42.782;23.108;2022-10-16T15:12:54;-14741.16;;;20.69
62930;BMP280;49036;42.782;23.108;2022-10-16T15:17:51;-14736.47;;;20.55
62930;BMP280;49036;42.782;23.108;2022-10-16T15:20:25;-14668.06;;;18.55
62930;BMP280;49036;42.782;23.108;2022-10-16T15:22:51;-14606.41;;;16.74
62930;BMP280;49036;42.782;23.108;2022-10-16T15:27:45;-14543.53;;;14.90
62930;BMP280;49036;42.782;23.108;2022-10-16T15:30:10;-14517.75;;;14.14
62930;BMP280;49036;42.782;23.108;2022-10-16T15:32:36;-14499.56;;;13.61
62930;BMP280;49036;42.782;23.108;2022-10-16T15:35:02;-14485.38;;;13.19
62930;BMP280;49036;42.782;23.108;2022-10-16T15:37:27;-14471.72;;;12.79
62930;BMP280;49036;42.782;23.108;2022-10-16T15:39:53;-14460.13;;;12.45
62930;BMP280;49036;42.782;23.108;2022-10-16T15:42:18;-14445.25;;;12.02
62930;BMP280;49036;42.782;23.108;2022-10-16T15:44:44;-14433.13;;;11.66
62930;BMP280;49036;42.782;23.108;2022-10-16T15:47:09;-14419.63;;;11.26
62930;BMP280;49036;42.782;23.108;2022-10-16T15:49:35;-14407.19;;;10.90
62930;BMP280;49036;42.782;23.108;2022-10-16T15:52:00;-14394.22;;;10.52
62930;BMP280;49036;42.782;23.108;2022-10-16T15:54:25;-14383.81;;;10.21
62930;BMP280;49036;42.782;23.108;2022-10-16T15:56:51;-14369.81;;;9.80
62930;BMP280;49036;42.782;23.108;2022-10-16T15:59:16;-14354.94;;;9.36
62930;BMP280;49036;42.782;23.108;2022-10-16T16:01:42;-14344.41;;;9.05
62930;BMP280;49036;42.782;23.108;2022-10-16T16:04:07;-14336.63;;;8.82